Decoded Metar for KGTB (FORT DRUM in NY, USA) (IATA:GTB) | Meteo·Mobile Aviation Weather
aviador You're here:

KGTB Decoded Metar

FORT DRUM in NY, USA
Report Time2019-10-22 13:56:00
UTC Time2019-10-22 15:03:41
Flight Rules Old
Wind160° at 15 Gusting to 21 kt
W.Decomp.*RWY 15: 13.8 kt HW 5.9 kt RCW
RWY 21: 12.0 kt HW 9 kt LCW
RWY 26: 0.8 kt HW 15 kt LCW
Visibility9999 m
Phenomena:N/A
Clouds:Broken 050 Hf
Expected CloudBase > 3,200 ft AGL from Temp-Dew spread
Ceiling5,000 ft
Temp14°C (ISA 0)
Dew Point06°C (59% RH)
AAT7.7°C
QNH1011 hPa
Density Alt919 ft
Elevation679 ft
Report Wrong Elevation
Raw Report
KGTB 221356Z 16015G21KT 10SM BKN050 14/06 A2986 RMK AO2A SLP113
WND DATA ESTMD T01400064 $=

Extra information for KGTB:More info

Metar Taf Metar & Taf Last 4 Metars F.Rules Stats Wind Profile Meteogram Temp Stats Airport Information Weather charts Add Link Nearby VenuesMetar ALERT Operation Metar Decoded Social comments

AIRNAV info for KGTB